sensor_id;sensor_type;location;lat;lon;timestamp;temperature;humidity
47805;DHT22;33568;45.286;9.900;2024-02-28T00:00:13;11.10;99.90
47805;DHT22;33568;45.286;9.900;2024-02-28T00:02:40;11.00;99.90
47805;DHT22;33568;45.286;9.900;2024-02-28T00:05:08;11.10;99.90
47805;DHT22;33568;45.286;9.900;2024-02-28T00:07:35;11.00;99.90
47805;DHT22;33568;45.286;9.900;2024-02-28T00:10:02;11.00;99.90
47805;DHT22;33568;45.286;9.900;2024-02-28T00:12:29;11.10;99.90
47805;DHT22;33568;45.286;9.900;2024-02-28T00:14:56;11.00;99.90
47805;DHT22;33568;45.286;9.900;2024-02-28T00:17:23;11.10;99.90
47805;DHT22;33568;45.286;9.900;2024-02-28T00:19:50;11.10;99.90
47805;DHT22;33568;45.286;9.900;2024-02-28T00:22:17;11.10;99.90
47805;DHT22;33568;45.286;9.900;2024-02-28T00:24:43;11.10;99.90
47805;DHT22;33568;45.286;9.900;2024-02-28T00:27:10;11.10;99.90
47805;DHT22;33568;45.286;9.900;2024-02-28T00:29:36;11.10;99.90
47805;DHT22;33568;45.286;9.900;2024-02-28T00:32:02;11.20;99.90
47805;DHT22;33568;45.286;9.900;2024-02-28T00:34:29;11.20;99.90
47805;DHT22;33568;45.286;9.900;2024-02-28T00:36:55;11.10;99.90
47805;DHT22;33568;45.286;9.900;2024-02-28T00:39:22;11.10;99.90
47805;DHT22;33568;45.286;9.900;2024-02-28T00:41:48;11.20;99.90
47805;DHT22;33568;45.286;9.900;2024-02-28T00:44:14;11.20;99.90
47805;DHT22;33568;45.286;9.900;2024-02-28T00:46:41;11.20;99.90
47805;DHT22;33568;45.286;9.900;2024-02-28T00:49:07;11.20;99.90
47805;DHT22;33568;45.286;9.900;2024-02-28T00:51:33;11.20;99.90
47805;DHT22;33568;45.286;9.900;2024-02-28T00:54:02;11.10;99.90
47805;DHT22;33568;45.286;9.900;2024-02-28T00:56:29;11.20;99.90
47805;DHT22;33568;45.286;9.900;2024-02-28T00:58:55;11.20;99.90
47805;DHT22;33568;45.286;9.900;2024-02-28T01:01:22;11.20;99.90
47805;DHT22;33568;45.286;9.900;2024-02-28T01:03:48;11.20;99.90
47805;DHT22;33568;45.286;9.900;2024-02-28T01:06:15;11.20;99.90
47805;DHT22;33568;45.286;9.900;2024-02-28T01:08:42;11.30;99.90
47805;DHT22;33568;45.286;9.900;2024-02-28T01:11:10;11.30;99.90
47805;DHT22;33568;45.286;9.900;2024-02-28T01:13:36;11.30;99.90
47805;DHT22;33568;45.286;9.900;2024-02-28T01:16:03;11.40;99.90
47805;DHT22;33568;45.286;9.900;2024-02-28T01:18:29;11.30;99.90
47805;DHT22;33568;45.286;9.900;2024-02-28T01:20:57;11.30;99.90
47805;DHT22;33568;45.286;9.900;2024-02-28T01:23:23;11.40;99.90
47805;DHT22;33568;45.286;9.900;2024-02-28T01:25:49;11.30;99.90
47805;DHT22;33568;45.286;9.900;2024-02-28T01:28:15;11.30;99.90
47805;DHT22;33568;45.286;9.900;2024-02-28T01:30:42;11.30;99.90
47805;DHT22;33568;45.286;9.900;2024-02-28T01:33:09;11.30;99.90
47805;DHT22;33568;45.286;9.900;2024-02-28T01:35:35;11.40;99.90
47805;DHT22;33568;45.286;9.900;2024-02-28T01:38:02;11.40;99.90
47805;DHT22;33568;45.286;9.900;2024-02-28T01:40:28;11.40;99.90
47805;DHT22;33568;45.286;9.900;2024-02-28T01:42:55;11.30;99.90
47805;DHT22;33568;45.286;9.900;2024-02-28T01:45:21;11.40;99.90
47805;DHT22;33568;45.286;9.900;2024-02-28T01:47:48;11.30;99.90
47805;DHT22;33568;45.286;9.900;2024-02-28T01:50:14;11.40;99.90
47805;DHT22;33568;45.286;9.900;2024-02-28T01:52:41;11.30;99.90
47805;DHT22;33568;45.286;9.900;2024-02-28T01:55:08;11.40;99.90
47805;DHT22;33568;45.286;9.900;2024-02-28T01:57:36;11.30;99.90
47805;DHT22;33568;45.286;9.900;2024-02-28T02:00:05;11.40;99.90
47805;DHT22;33568;45.286;9.900;2024-02-28T02:02:32;11.40;99.90
47805;DHT22;33568;45.286;9.900;2024-02-28T02:04:58;11.40;99.90
47805;DHT22;33568;45.286;9.900;2024-02-28T02:07:25;11.40;99.90
47805;DHT22;33568;45.286;9.900;2024-02-28T02:09:52;11.40;99.90
47805;DHT22;33568;45.286;9.900;2024-02-28T02:12:19;11.50;99.90
47805;DHT22;33568;45.286;9.900;2024-02-28T02:14:48;11.50;99.90
47805;DHT22;33568;45.286;9.900;2024-02-28T02:17:15;11.50;99.90
47805;DHT22;33568;45.286;9.900;2024-02-28T02:19:41;11.60;99.90
47805;DHT22;33568;45.286;9.900;2024-02-28T02:22:08;11.60;99.90
47805;DHT22;33568;45.286;9.900;2024-02-28T02:24:35;11.60;99.90
47805;DHT22;33568;45.286;9.900;2024-02-28T02:27:02;11.60;99.90
47805;DHT22;33568;45.286;9.900;2024-02-28T02:29:31;11.60;99.90
47805;DHT22;33568;45.286;9.900;2024-02-28T02:31:58;11.70;99.90
47805;DHT22;33568;45.286;9.900;2024-02-28T02:34:25;11.60;99.90
47805;DHT22;33568;45.286;9.900;2024-02-28T02:36:51;11.60;99.90
47805;DHT22;33568;45.286;9.900;2024-02-28T02:39:18;11.60;99.90
47805;DHT22;33568;45.286;9.900;2024-02-28T02:41:44;11.50;99.90
47805;DHT22;33568;45.286;9.900;2024-02-28T02:44:10;11.50;99.90
47805;DHT22;33568;45.286;9.900;2024-02-28T02:46:36;11.50;99.90
47805;DHT22;33568;45.286;9.900;2024-02-28T02:49:03;11.60;99.90
47805;DHT22;33568;45.286;9.900;2024-02-28T02:51:29;11.60;99.90
47805;DHT22;33568;45.286;9.900;2024-02-28T02:53:56;11.60;99.90
47805;DHT22;33568;45.286;9.900;2024-02-28T02:56:22;11.50;99.90
47805;DHT22;33568;45.286;9.900;2024-02-28T02:58:48;11.60;99.90
47805;DHT22;33568;45.286;9.900;2024-02-28T03:01:15;11.60;99.90
47805;DHT22;33568;45.286;9.900;2024-02-28T03:03:41;11.60;99.90
47805;DHT22;33568;45.286;9.900;2024-02-28T03:06:08;11.60;99.90
47805;DHT22;33568;45.286;9.900;2024-02-28T03:08:35;11.50;99.90
47805;DHT22;33568;45.286;9.900;2024-02-28T03:11:02;11.50;99.90
47805;DHT22;33568;45.286;9.900;2024-02-28T03:13:30;11.60;99.90
47805;DHT22;33568;45.286;9.900;2024-02-28T03:15:56;11.50;99.90
47805;DHT22;33568;45.286;9.900;2024-02-28T03:18:23;11.50;99.90
47805;DHT22;33568;45.286;9.900;2024-02-28T03:20:50;11.50;99.90
47805;DHT22;33568;45.286;9.900;2024-02-28T03:23:17;11.50;99.90
47805;DHT22;33568;45.286;9.900;2024-02-28T03:25:43;11.50;99.90
47805;DHT22;33568;45.286;9.900;2024-02-28T03:28:11;11.40;99.90
47805;DHT22;33568;45.286;9.900;2024-02-28T03:30:37;11.40;99.90
47805;DHT22;33568;45.286;9.900;2024-02-28T03:33:03;11.50;99.90
47805;DHT22;33568;45.286;9.900;2024-02-28T03:35:30;11.50;99.90
47805;DHT22;33568;45.286;9.900;2024-02-28T03:37:56;11.60;99.90
47805;DHT22;33568;45.286;9.900;2024-02-28T03:40:23;11.60;99.90
47805;DHT22;33568;45.286;9.900;2024-02-28T03:42:49;11.60;99.90
47805;DHT22;33568;45.286;9.900;2024-02-28T03:45:15;11.60;99.90
47805;DHT22;33568;45.286;9.900;2024-02-28T03:47:42;11.60;99.90
47805;DHT22;33568;45.286;9.900;2024-02-28T03:50:08;11.50;99.90
47805;DHT22;33568;45.286;9.900;2024-02-28T03:52:34;11.50;99.90
47805;DHT22;33568;45.286;9.900;2024-02-28T03:55:01;11.40;99.90
47805;DHT22;33568;45.286;9.900;2024-02-28T03:57:28;11.30;99.90
47805;DHT22;33568;45.286;9.900;2024-02-28T03:59:54;11.40;99.90
47805;DHT22;33568;45.286;9.900;2024-02-28T04:02:20;11.30;99.90
47805;DHT22;33568;45.286;9.900;2024-02-28T04:04:47;11.30;99.90
47805;DHT22;33568;45.286;9.900;2024-02-28T04:07:13;11.40;99.90
47805;DHT22;33568;45.286;9.900;2024-02-28T04:09:39;11.40;99.90
47805;DHT22;33568;45.286;9.900;2024-02-28T04:12:06;11.40;99.90
47805;DHT22;33568;45.286;9.900;2024-02-28T04:14:32;11.40;99.90
47805;DHT22;33568;45.286;9.900;2024-02-28T04:16:59;11.40;99.90
47805;DHT22;33568;45.286;9.900;2024-02-28T04:19:25;11.40;99.90
47805;DHT22;33568;45.286;9.900;2024-02-28T04:21:52;11.40;99.90
47805;DHT22;33568;45.286;9.900;2024-02-28T04:24:18;11.40;99.90
47805;DHT22;33568;45.286;9.900;2024-02-28T04:26:44;11.40;99.90
47805;DHT22;33568;45.286;9.900;2024-02-28T04:29:11;11.40;99.90
47805;DHT22;33568;45.286;9.900;2024-02-28T04:31:40;11.40;99.90
47805;DHT22;33568;45.286;9.900;2024-02-28T04:34:06;11.40;99.90
47805;DHT22;33568;45.286;9.900;2024-02-28T04:36:32;11.30;99.90
47805;DHT22;33568;45.286;9.900;2024-02-28T04:38:59;11.40;99.90
47805;DHT22;33568;45.286;9.900;2024-02-28T04:41:27;11.30;99.90
47805;DHT22;33568;45.286;9.900;2024-02-28T04:43:54;11.30;99.90
47805;DHT22;33568;45.286;9.900;2024-02-28T04:46:20;11.40;99.90
47805;DHT22;33568;45.286;9.900;2024-02-28T04:48:46;11.40;99.90
47805;DHT22;33568;45.286;9.900;2024-02-28T04:51:16;11.40;99.90
47805;DHT22;33568;45.286;9.900;2024-02-28T04:53:43;11.50;99.90
47805;DHT22;33568;45.286;9.900;2024-02-28T04:56:10;11.40;99.90
47805;DHT22;33568;45.286;9.900;2024-02-28T04:58:37;11.40;99.90
47805;DHT22;33568;45.286;9.900;2024-02-28T05:01:03;11.40;99.90
47805;DHT22;33568;45.286;9.900;2024-02-28T05:03:29;11.40;99.90
47805;DHT22;33568;45.286;9.900;2024-02-28T05:05:56;11.40;99.90
47805;DHT22;33568;45.286;9.900;2024-02-28T05:08:22;11.30;99.90
47805;DHT22;33568;45.286;9.900;2024-02-28T05:10:49;11.30;99.90
47805;DHT22;33568;45.286;9.900;2024-02-28T05:13:17;11.30;99.90
47805;DHT22;33568;45.286;9.900;2024-02-28T05:15:43;11.40;99.90
47805;DHT22;33568;45.286;9.900;2024-02-28T05:18:09;11.40;99.90
47805;DHT22;33568;45.286;9.900;2024-02-28T05:20:36;11.40;99.90
47805;DHT22;33568;45.286;9.900;2024-02-28T05:23:03;11.40;99.90
47805;DHT22;33568;45.286;9.900;2024-02-28T05:25:29;11.40;99.90
47805;DHT22;33568;45.286;9.900;2024-02-28T05:27:55;11.50;99.90
47805;DHT22;33568;45.286;9.900;2024-02-28T05:30:22;11.50;99.90
47805;DHT22;33568;45.286;9.900;2024-02-28T05:32:48;11.50;99.90
47805;DHT22;33568;45.286;9.900;2024-02-28T05:35:15;11.40;99.90
47805;DHT22;33568;45.286;9.900;2024-02-28T05:37:41;11.40;99.90
47805;DHT22;33568;45.286;9.900;2024-02-28T05:40:07;11.40;99.90
47805;DHT22;33568;45.286;9.900;2024-02-28T05:42:34;11.40;99.90
47805;DHT22;33568;45.286;9.900;2024-02-28T05:45:00;11.40;99.90
47805;DHT22;33568;45.286;9.900;2024-02-28T05:47:26;11.40;99.90
47805;DHT22;33568;45.286;9.900;2024-02-28T05:49:54;11.30;99.90
47805;DHT22;33568;45.286;9.900;2024-02-28T05:52:22;11.40;99.90
47805;DHT22;33568;45.286;9.900;2024-02-28T05:54:48;11.30;99.90
47805;DHT22;33568;45.286;9.900;2024-02-28T05:57:14;11.40;99.90
47805;DHT22;33568;45.286;9.900;2024-02-28T05:59:41;11.30;99.90
47805;DHT22;33568;45.286;9.900;2024-02-28T06:02:07;11.30;99.90
47805;DHT22;33568;45.286;9.900;2024-02-28T06:04:33;11.40;99.90
47805;DHT22;33568;45.286;9.900;2024-02-28T06:07:00;11.30;99.90
47805;DHT22;33568;45.286;9.900;2024-02-28T06:09:26;11.40;99.90
47805;DHT22;33568;45.286;9.900;2024-02-28T06:11:56;11.30;99.90
47805;DHT22;33568;45.286;9.900;2024-02-28T06:14:22;11.30;99.90
47805;DHT22;33568;45.286;9.900;2024-02-28T06:16:48;11.30;99.90
47805;DHT22;33568;45.286;9.900;2024-02-28T06:19:15;11.30;99.90
47805;DHT22;33568;45.286;9.900;2024-02-28T06:21:41;11.30;99.90
47805;DHT22;33568;45.286;9.900;2024-02-28T06:24:08;11.30;99.90
47805;DHT22;33568;45.286;9.900;2024-02-28T06:26:34;11.30;99.90
47805;DHT22;33568;45.286;9.900;2024-02-28T06:29:01;11.30;99.90
47805;DHT22;33568;45.286;9.900;2024-02-28T06:31:30;11.40;99.90
47805;DHT22;33568;45.286;9.900;2024-02-28T06:33:57;11.40;99.90
47805;DHT22;33568;45.286;9.900;2024-02-28T06:36:23;11.40;99.90
47805;DHT22;33568;45.286;9.900;2024-02-28T06:38:50;11.40;99.90
47805;DHT22;33568;45.286;9.900;2024-02-28T06:41:16;11.40;99.90
47805;DHT22;33568;45.286;9.900;2024-02-28T06:43:43;11.50;99.90
47805;DHT22;33568;45.286;9.900;2024-02-28T06:46:11;11.50;99.90
47805;DHT22;33568;45.286;9.900;2024-02-28T06:48:38;11.50;99.90
47805;DHT22;33568;45.286;9.900;2024-02-28T06:51:04;11.50;99.90
47805;DHT22;33568;45.286;9.900;2024-02-28T06:53:30;11.50;99.90
47805;DHT22;33568;45.286;9.900;2024-02-28T06:55:57;11.50;99.90
47805;DHT22;33568;45.286;9.900;2024-02-28T06:58:23;11.50;99.90
47805;DHT22;33568;45.286;9.900;2024-02-28T07:00:51;11.50;99.90
47805;DHT22;33568;45.286;9.900;2024-02-28T07:03:17;11.60;99.90
47805;DHT22;33568;45.286;9.900;2024-02-28T07:05:44;11.60;99.90
47805;DHT22;33568;45.286;9.900;2024-02-28T07:08:10;11.60;99.90
47805;DHT22;33568;45.286;9.900;2024-02-28T07:10:37;11.60;99.90
47805;DHT22;33568;45.286;9.900;2024-02-28T07:13:10;11.60;99.90
47805;DHT22;33568;45.286;9.900;2024-02-28T07:15:37;11.50;99.90
47805;DHT22;33568;45.286;9.900;2024-02-28T07:18:04;11.50;99.90
47805;DHT22;33568;45.286;9.900;2024-02-28T07:20:31;11.50;99.90
47805;DHT22;33568;45.286;9.900;2024-02-28T07:22:57;11.60;99.90
47805;DHT22;33568;45.286;9.900;2024-02-28T07:25:23;11.50;99.90
47805;DHT22;33568;45.286;9.900;2024-02-28T07:27:50;11.60;99.90
47805;DHT22;33568;45.286;9.900;2024-02-28T07:30:16;11.60;99.90
47805;DHT22;33568;45.286;9.900;2024-02-28T07:32:42;11.60;99.90
47805;DHT22;33568;45.286;9.900;2024-02-28T07:35:09;11.70;99.90
47805;DHT22;33568;45.286;9.900;2024-02-28T07:37:35;11.70;99.90
47805;DHT22;33568;45.286;9.900;2024-02-28T07:40:01;11.80;99.90
47805;DHT22;33568;45.286;9.900;2024-02-28T07:42:29;11.90;99.90
47805;DHT22;33568;45.286;9.900;2024-02-28T07:44:55;11.90;99.90
47805;DHT22;33568;45.286;9.900;2024-02-28T07:47:23;11.90;99.90
47805;DHT22;33568;45.286;9.900;2024-02-28T07:49:51;12.00;99.90
47805;DHT22;33568;45.286;9.900;2024-02-28T07:52:17;12.00;99.90
47805;DHT22;33568;45.286;9.900;2024-02-28T07:54:44;12.00;99.90
47805;DHT22;33568;45.286;9.900;2024-02-28T07:57:11;12.00;99.90
47805;DHT22;33568;45.286;9.900;2024-02-28T07:59:44;12.00;99.90
47805;DHT22;33568;45.286;9.900;2024-02-28T08:02:11;12.10;99.90
47805;DHT22;33568;45.286;9.900;2024-02-28T08:04:40;12.10;99.90
47805;DHT22;33568;45.286;9.900;2024-02-28T08:07:06;12.10;99.90
47805;DHT22;33568;45.286;9.900;2024-02-28T08:09:33;12.10;99.90
47805;DHT22;33568;45.286;9.900;2024-02-28T08:11:59;12.10;99.90
47805;DHT22;33568;45.286;9.900;2024-02-28T08:14:27;12.10;99.90
47805;DHT22;33568;45.286;9.900;2024-02-28T08:16:55;12.20;99.90
47805;DHT22;33568;45.286;9.900;2024-02-28T08:19:21;12.20;99.90
47805;DHT22;33568;45.286;9.900;2024-02-28T08:21:48;12.30;99.90
47805;DHT22;33568;45.286;9.900;2024-02-28T08:24:14;12.30;99.90
47805;DHT22;33568;45.286;9.900;2024-02-28T08:26:40;12.20;99.90
47805;DHT22;33568;45.286;9.900;2024-02-28T08:29:08;12.30;99.90
47805;DHT22;33568;45.286;9.900;2024-02-28T08:31:40;12.40;99.90
47805;DHT22;33568;45.286;9.900;2024-02-28T08:34:07;12.40;99.90
47805;DHT22;33568;45.286;9.900;2024-02-28T08:36:33;12.40;99.90
47805;DHT22;33568;45.286;9.900;2024-02-28T08:38:59;12.50;99.90
47805;DHT22;33568;45.286;9.900;2024-02-28T08:41:26;12.50;99.90
47805;DHT22;33568;45.286;9.900;2024-02-28T08:43:52;12.50;99.90
47805;DHT22;33568;45.286;9.900;2024-02-28T08:46:18;12.50;99.90
47805;DHT22;33568;45.286;9.900;2024-02-28T08:48:45;12.50;99.90
47805;DHT22;33568;45.286;9.900;2024-02-28T08:51:11;12.60;99.90
47805;DHT22;33568;45.286;9.900;2024-02-28T08:53:38;12.60;99.90
47805;DHT22;33568;45.286;9.900;2024-02-28T08:56:04;12.60;99.90
47805;DHT22;33568;45.286;9.900;2024-02-28T08:58:31;12.70;99.90
47805;DHT22;33568;45.286;9.900;2024-02-28T09:00:58;12.70;99.90
47805;DHT22;33568;45.286;9.900;2024-02-28T09:03:24;12.80;99.90
47805;DHT22;33568;45.286;9.900;2024-02-28T09:05:50;12.80;99.90
47805;DHT22;33568;45.286;9.900;2024-02-28T09:08:17;12.90;99.90
47805;DHT22;33568;45.286;9.900;2024-02-28T09:10:43;13.10;99.90
47805;DHT22;33568;45.286;9.900;2024-02-28T09:13:10;13.20;99.90
47805;DHT22;33568;45.286;9.900;2024-02-28T09:15:38;13.20;99.90
47805;DHT22;33568;45.286;9.900;2024-02-28T09:18:04;13.40;99.90
47805;DHT22;33568;45.286;9.900;2024-02-28T09:20:31;13.40;99.90
47805;DHT22;33568;45.286;9.900;2024-02-28T09:22:57;13.50;99.90
47805;DHT22;33568;45.286;9.900;2024-02-28T09:25:24;13.60;99.90
47805;DHT22;33568;45.286;9.900;2024-02-28T09:27:50;13.70;99.90
47805;DHT22;33568;45.286;9.900;2024-02-28T09:30:16;13.60;99.90
47805;DHT22;33568;45.286;9.900;2024-02-28T09:32:44;13.70;99.90
47805;DHT22;33568;45.286;9.900;2024-02-28T09:35:10;13.70;99.90
47805;DHT22;33568;45.286;9.900;2024-02-28T09:37:37;13.70;99.90
47805;DHT22;33568;45.286;9.900;2024-02-28T09:40:04;13.70;99.90
47805;DHT22;33568;45.286;9.900;2024-02-28T09:42:31;13.70;99.90
47805;DHT22;33568;45.286;9.900;2024-02-28T09:45:00;13.70;99.90
47805;DHT22;33568;45.286;9.900;2024-02-28T09:47:27;13.80;99.90
47805;DHT22;33568;45.286;9.900;2024-02-28T09:49:53;13.90;99.90
47805;DHT22;33568;45.286;9.900;2024-02-28T09:52:21;13.80;99.90
47805;DHT22;33568;45.286;9.900;2024-02-28T09:54:47;13.90;99.90
47805;DHT22;33568;45.286;9.900;2024-02-28T09:57:14;13.90;99.90
47805;DHT22;33568;45.286;9.900;2024-02-28T09:59:40;14.00;99.90
47805;DHT22;33568;45.286;9.900;2024-02-28T10:02:10;14.00;99.90
47805;DHT22;33568;45.286;9.900;2024-02-28T10:04:37;14.00;99.90
47805;DHT22;33568;45.286;9.900;2024-02-28T10:07:10;14.10;99.90
47805;DHT22;33568;45.286;9.900;2024-02-28T10:09:39;14.00;99.90
47805;DHT22;33568;45.286;9.900;2024-02-28T10:12:06;14.10;99.90
47805;DHT22;33568;45.286;9.900;2024-02-28T10:14:32;14.10;99.90
47805;DHT22;33568;45.286;9.900;2024-02-28T10:16:59;14.10;99.90
47805;DHT22;33568;45.286;9.900;2024-02-28T10:19:25;14.10;99.90
47805;DHT22;33568;45.286;9.900;2024-02-28T10:21:52;14.30;99.90
47805;DHT22;33568;45.286;9.900;2024-02-28T10:24:19;14.30;99.90
47805;DHT22;33568;45.286;9.900;2024-02-28T10:26:47;14.40;99.90
47805;DHT22;33568;45.286;9.900;2024-02-28T10:29:23;14.50;99.90
47805;DHT22;33568;45.286;9.900;2024-02-28T10:31:57;14.60;99.90
47805;DHT22;33568;45.286;9.900;2024-02-28T10:34:24;14.70;99.90
47805;DHT22;33568;45.286;9.900;2024-02-28T10:36:50;14.70;99.90
47805;DHT22;33568;45.286;9.900;2024-02-28T10:39:17;14.60;99.90
47805;DHT22;33568;45.286;9.900;2024-02-28T10:41:47;14.80;99.90
47805;DHT22;33568;45.286;9.900;2024-02-28T10:44:16;14.80;99.90
47805;DHT22;33568;45.286;9.900;2024-02-28T10:46:44;14.80;99.90
47805;DHT22;33568;45.286;9.900;2024-02-28T10:49:11;14.80;99.90
47805;DHT22;33568;45.286;9.900;2024-02-28T10:51:39;14.80;99.90
47805;DHT22;33568;45.286;9.900;2024-02-28T10:54:11;14.80;99.90
47805;DHT22;33568;45.286;9.900;2024-02-28T10:56:38;14.80;99.90
47805;DHT22;33568;45.286;9.900;2024-02-28T10:59:12;14.80;99.90
47805;DHT22;33568;45.286;9.900;2024-02-28T11:01:41;14.90;99.90
47805;DHT22;33568;45.286;9.900;2024-02-28T11:04:09;14.90;99.90
47805;DHT22;33568;45.286;9.900;2024-02-28T11:06:50;14.90;99.90
47805;DHT22;33568;45.286;9.900;2024-02-28T11:09:23;14.90;99.90
47805;DHT22;33568;45.286;9.900;2024-02-28T11:11:52;14.90;99.90
47805;DHT22;33568;45.286;9.900;2024-02-28T11:14:19;14.90;99.90
47805;DHT22;33568;45.286;9.900;2024-02-28T11:17:04;14.90;99.90
47805;DHT22;33568;45.286;9.900;2024-02-28T11:19:31;14.90;99.90
47805;DHT22;33568;45.286;9.900;2024-02-28T11:21:59;14.90;99.90
47805;DHT22;33568;45.286;9.900;2024-02-28T11:24:31;14.90;99.90
47805;DHT22;33568;45.286;9.900;2024-02-28T11:26:58;14.80;99.90
47805;DHT22;33568;45.286;9.900;2024-02-28T11:29:28;14.80;99.90
47805;DHT22;33568;45.286;9.900;2024-02-28T11:31:55;14.80;99.90
47805;DHT22;33568;45.286;9.900;2024-02-28T11:34:22;14.80;99.90
47805;DHT22;33568;45.286;9.900;2024-02-28T11:36:52;14.70;99.90
47805;DHT22;33568;45.286;9.900;2024-02-28T11:39:19;14.60;99.90
47805;DHT22;33568;45.286;9.900;2024-02-28T11:41:47;14.60;99.90
47805;DHT22;33568;45.286;9.900;2024-02-28T11:44:19;14.60;99.90
47805;DHT22;33568;45.286;9.900;2024-02-28T11:46:49;14.70;99.90
47805;DHT22;33568;45.286;9.900;2024-02-28T11:49:16;14.70;99.90
47805;DHT22;33568;45.286;9.900;2024-02-28T11:51:45;14.70;99.90
47805;DHT22;33568;45.286;9.900;2024-02-28T11:54:12;14.70;99.90
47805;DHT22;33568;45.286;9.900;2024-02-28T11:56:39;14.90;99.90
47805;DHT22;33568;45.286;9.900;2024-02-28T11:59:06;15.00;99.90
47805;DHT22;33568;45.286;9.900;2024-02-28T12:01:37;15.30;99.90
47805;DHT22;33568;45.286;9.900;2024-02-28T12:04:04;15.70;99.90
47805;DHT22;33568;45.286;9.900;2024-02-28T12:06:34;15.90;99.90
47805;DHT22;33568;45.286;9.900;2024-02-28T12:09:11;16.20;99.90
47805;DHT22;33568;45.286;9.900;2024-02-28T12:11:38;16.50;99.90
47805;DHT22;33568;45.286;9.900;2024-02-28T12:14:04;16.70;99.90
47805;DHT22;33568;45.286;9.900;2024-02-28T12:16:37;16.80;99.10
47805;DHT22;33568;45.286;9.900;2024-02-28T12:19:08;17.00;99.90
47805;DHT22;33568;45.286;9.900;2024-02-28T12:21:39;16.90;99.90
47805;DHT22;33568;45.286;9.900;2024-02-28T12:24:10;16.90;99.90
47805;DHT22;33568;45.286;9.900;2024-02-28T12:26:40;16.80;99.90
47805;DHT22;33568;45.286;9.900;2024-02-28T12:29:07;16.60;99.90
47805;DHT22;33568;45.286;9.900;2024-02-28T12:31:33;16.40;99.90
47805;DHT22;33568;45.286;9.900;2024-02-28T12:33:59;16.20;99.90
47805;DHT22;33568;45.286;9.900;2024-02-28T12:36:26;16.00;99.50
47805;DHT22;33568;45.286;9.900;2024-02-28T12:38:52;15.90;99.90
47805;DHT22;33568;45.286;9.900;2024-02-28T12:41:19;15.80;99.90
47805;DHT22;33568;45.286;9.900;2024-02-28T12:43:45;15.60;99.90
47805;DHT22;33568;45.286;9.900;2024-02-28T12:46:11;15.60;99.90
47805;DHT22;33568;45.286;9.900;2024-02-28T12:48:39;15.40;99.90
47805;DHT22;33568;45.286;9.900;2024-02-28T12:51:06;15.50;99.90
47805;DHT22;33568;45.286;9.900;2024-02-28T12:53:32;15.40;99.90
47805;DHT22;33568;45.286;9.900;2024-02-28T12:55:59;15.30;99.90
47805;DHT22;33568;45.286;9.900;2024-02-28T12:58:25;15.10;99.90
47805;DHT22;33568;45.286;9.900;2024-02-28T13:00:52;15.00;99.90
47805;DHT22;33568;45.286;9.900;2024-02-28T13:03:18;14.90;99.90
47805;DHT22;33568;45.286;9.900;2024-02-28T13:05:45;14.90;99.90
47805;DHT22;33568;45.286;9.900;2024-02-28T13:08:11;14.90;99.90
47805;DHT22;33568;45.286;9.900;2024-02-28T13:10:38;14.90;99.90
47805;DHT22;33568;45.286;9.900;2024-02-28T13:13:07;14.80;99.90
47805;DHT22;33568;45.286;9.900;2024-02-28T13:15:33;14.90;99.90
47805;DHT22;33568;45.286;9.900;2024-02-28T13:18:00;14.80;99.90
47805;DHT22;33568;45.286;9.900;2024-02-28T13:20:28;14.80;99.90
47805;DHT22;33568;45.286;9.900;2024-02-28T13:22:54;14.70;99.90
47805;DHT22;33568;45.286;9.900;2024-02-28T13:25:20;14.70;99.90
47805;DHT22;33568;45.286;9.900;2024-02-28T13:27:47;14.70;99.90
47805;DHT22;33568;45.286;9.900;2024-02-28T13:30:14;14.50;99.90
47805;DHT22;33568;45.286;9.900;2024-02-28T13:32:41;14.50;99.90
47805;DHT22;33568;45.286;9.900;2024-02-28T13:35:07;14.60;99.90
47805;DHT22;33568;45.286;9.900;2024-02-28T13:37:34;14.60;99.90
47805;DHT22;33568;45.286;9.900;2024-02-28T13:40:00;14.50;99.90
47805;DHT22;33568;45.286;9.900;2024-02-28T13:42:27;14.50;99.90
47805;DHT22;33568;45.286;9.900;2024-02-28T13:44:53;14.50;99.90
47805;DHT22;33568;45.286;9.900;2024-02-28T13:47:19;14.60;99.90
47805;DHT22;33568;45.286;9.900;2024-02-28T13:49:46;14.60;99.90
47805;DHT22;33568;45.286;9.900;2024-02-28T13:52:13;14.60;99.90
47805;DHT22;33568;45.286;9.900;2024-02-28T13:54:39;14.60;99.90
47805;DHT22;33568;45.286;9.900;2024-02-28T13:57:06;14.60;99.90
47805;DHT22;33568;45.286;9.900;2024-02-28T13:59:32;14.60;99.90
47805;DHT22;33568;45.286;9.900;2024-02-28T14:01:59;14.60;99.90
47805;DHT22;33568;45.286;9.900;2024-02-28T14:04:26;14.60;99.90
47805;DHT22;33568;45.286;9.900;2024-02-28T14:06:52;14.70;99.90
47805;DHT22;33568;45.286;9.900;2024-02-28T14:09:19;14.60;99.90
47805;DHT22;33568;45.286;9.900;2024-02-28T14:11:48;14.60;99.90
47805;DHT22;33568;45.286;9.900;2024-02-28T14:14:15;14.70;99.90
47805;DHT22;33568;45.286;9.900;2024-02-28T14:16:41;14.70;99.90
47805;DHT22;33568;45.286;9.900;2024-02-28T14:19:09;14.70;99.90
47805;DHT22;33568;45.286;9.900;2024-02-28T14:21:35;14.70;99.90
47805;DHT22;33568;45.286;9.900;2024-02-28T14:24:01;14.50;99.90
47805;DHT22;33568;45.286;9.900;2024-02-28T14:26:28;14.50;99.90
47805;DHT22;33568;45.286;9.900;2024-02-28T14:28:54;14.50;99.90
47805;DHT22;33568;45.286;9.900;2024-02-28T14:31:22;14.60;99.90
47805;DHT22;33568;45.286;9.900;2024-02-28T14:33:53;14.60;99.90
47805;DHT22;33568;45.286;9.900;2024-02-28T14:36:20;14.70;99.90
47805;DHT22;33568;45.286;9.900;2024-02-28T14:38:47;14.70;99.90
47805;DHT22;33568;45.286;9.900;2024-02-28T14:41:14;14.70;99.90
47805;DHT22;33568;45.286;9.900;2024-02-28T14:43:40;14.80;99.90
47805;DHT22;33568;45.286;9.900;2024-02-28T14:46:06;14.80;99.90
47805;DHT22;33568;45.286;9.900;2024-02-28T14:48:35;14.70;99.90
47805;DHT22;33568;45.286;9.900;2024-02-28T14:51:02;14.70;99.90
47805;DHT22;33568;45.286;9.900;2024-02-28T14:53:28;14.70;99.90
47805;DHT22;33568;45.286;9.900;2024-02-28T14:55:54;14.70;99.90
47805;DHT22;33568;45.286;9.900;2024-02-28T14:58:21;14.70;99.90
47805;DHT22;33568;45.286;9.900;2024-02-28T15:00:47;14.60;99.90
47805;DHT22;33568;45.286;9.900;2024-02-28T15:03:14;14.70;99.90
47805;DHT22;33568;45.286;9.900;2024-02-28T15:05:41;14.60;99.90
47805;DHT22;33568;45.286;9.900;2024-02-28T15:08:10;14.70;99.90
47805;DHT22;33568;45.286;9.900;2024-02-28T15:10:36;14.70;99.90
47805;DHT22;33568;45.286;9.900;2024-02-28T15:13:03;14.70;99.90
47805;DHT22;33568;45.286;9.900;2024-02-28T15:15:30;14.60;99.90
47805;DHT22;33568;45.286;9.900;2024-02-28T15:17:56;14.60;99.90
47805;DHT22;33568;45.286;9.900;2024-02-28T15:20:23;14.60;99.90
47805;DHT22;33568;45.286;9.900;2024-02-28T15:22:50;14.60;99.90
47805;DHT22;33568;45.286;9.900;2024-02-28T15:25:16;14.50;99.90
47805;DHT22;33568;45.286;9.900;2024-02-28T15:27:43;14.40;99.90